createdAt,value
2018-04-28T00:00:41.019Z,69.30
2018-04-28T00:05:42.589Z,69.60
2018-04-28T00:10:44.111Z,69.50
2018-04-28T00:15:45.651Z,69.30
2018-04-28T00:20:47.216Z,69.50
2018-04-28T00:41:42.229Z,70.30
2018-04-28T00:46:59.427Z,69.80
2018-04-28T00:52:01.727Z,69.80
2018-04-28T01:13:16.744Z,68.30
2018-04-28T01:18:23.163Z,67.70
2018-04-28T01:39:40.005Z,64.30
2018-04-28T01:44:52.994Z,65.00
2018-04-28T01:49:57.440Z,64.90
2018-04-28T01:55:03.827Z,64.40
2018-04-28T02:00:17.188Z,64.40
2018-04-28T02:05:27.445Z,64.40
2018-04-28T02:10:38.036Z,65.00
2018-04-28T02:15:44.199Z,66.10
2018-04-28T02:36:58.443Z,65.20
2018-04-28T02:42:07.692Z,65.00
2018-04-28T02:47:16.368Z,65.30
2018-04-28T02:52:36.425Z,66.10
2018-04-28T03:13:40.371Z,69.40
2018-04-28T03:18:41.920Z,70.20
2018-04-28T03:23:55.217Z,71.40
2018-04-28T03:29:04.762Z,72.40
2018-04-28T03:34:15.145Z,72.70
2018-04-28T03:39:28.576Z,72.70
2018-04-28T03:44:31.835Z,72.50
2018-04-28T03:49:33.410Z,73.10
2018-04-28T03:54:36.935Z,74.00
2018-04-28T04:16:00.939Z,74.90
2018-04-28T04:36:58.998Z,74.30
2018-04-28T04:58:31.355Z,68.60
2018-04-28T05:09:43.945Z,56.30
2018-04-28T05:36:38.147Z,40.10
2018-04-28T05:41:49.140Z,39.10
2018-04-28T05:47:19.523Z,39.80
2018-04-28T05:52:42.916Z,37.60
2018-04-28T06:14:34.374Z,36.40
2018-04-28T06:19:50.209Z,34.90
2018-04-28T06:24:51.951Z,33.90
2018-04-28T06:29:53.508Z,32.70
2018-04-28T06:34:55.111Z,33.20
2018-04-28T06:39:56.692Z,32.50
2018-04-28T06:44:58.289Z,31.60
2018-04-28T06:49:59.929Z,32.10
2018-04-28T06:55:01.476Z,30.10
2018-04-28T07:00:03.023Z,32.40
2018-04-28T07:05:04.651Z,32.20
2018-04-28T07:10:06.981Z,31.50
2018-04-28T07:15:08.668Z,31.50
2018-04-28T07:20:10.288Z,32.70
2018-04-28T07:25:12.629Z,32.20
2018-04-28T07:30:14.298Z,32.20
2018-04-28T07:35:15.874Z,33.50
2018-04-28T07:40:17.620Z,32.80
2018-04-28T07:45:19.160Z,32.20
2018-04-28T07:50:20.725Z,34.10
2018-04-28T07:55:22.288Z,35.20
2018-04-28T08:00:24.700Z,34.80
2018-04-28T08:05:26.224Z,34.80
2018-04-28T08:10:28.506Z,30.50
2018-04-28T08:15:30.803Z,31.10
2018-04-28T08:20:33.088Z,31.60
2018-04-28T08:25:35.397Z,31.10
2018-04-28T08:30:37.099Z,31.10
2018-04-28T08:35:38.782Z,32.00
2018-04-28T08:40:48.211Z,32.40
2018-04-28T08:45:49.853Z,32.40
2018-04-28T08:50:52.104Z,31.20
2018-04-28T08:55:53.776Z,31.30
2018-04-28T09:01:02.373Z,31.90
2018-04-28T09:06:03.937Z,32.50
2018-04-28T09:11:05.499Z,33.50
2018-04-28T09:16:07.274Z,33.10
2018-04-28T09:21:08.814Z,34.30
2018-04-28T09:26:11.215Z,32.10
2018-04-28T09:31:12.685Z,32.00
2018-04-28T09:36:14.339Z,29.80
2018-04-28T09:41:15.940Z,28.60
2018-04-28T09:46:17.579Z,26.00
2018-04-28T09:51:19.120Z,29.50
2018-04-28T09:56:20.781Z,32.00
2018-04-28T10:01:22.401Z,32.30
2018-04-28T10:06:24.060Z,32.00
2018-04-28T10:11:25.590Z,33.00
2018-04-28T10:16:27.148Z,33.20
2018-04-28T10:21:28.708Z,32.30
2018-04-28T10:26:30.258Z,32.50
2018-04-28T10:31:31.800Z,34.70
2018-04-28T10:36:34.135Z,32.20
2018-04-28T10:41:35.756Z,32.20
2018-04-28T10:46:38.052Z,31.70
2018-04-28T10:51:39.607Z,31.70
2018-04-28T10:56:41.908Z,31.70
2018-04-28T11:01:43.464Z,31.60
2018-04-28T11:06:45.827Z,30.80
2018-04-28T11:11:47.461Z,30.80
2018-04-28T11:16:49.013Z,29.60
2018-04-28T11:21:50.588Z,26.80
2018-04-28T11:26:52.133Z,28.40
2018-04-28T11:31:53.737Z,29.70
2018-04-28T11:36:55.291Z,29.00
2018-04-28T11:41:56.888Z,30.30
2018-04-28T11:46:58.493Z,31.00
2018-04-28T11:52:00.802Z,32.50
2018-04-28T11:57:02.316Z,32.40
2018-04-28T12:02:03.832Z,31.10
2018-04-28T12:07:05.365Z,29.40
2018-04-28T12:12:06.975Z,28.20
2018-04-28T12:17:08.587Z,29.10
2018-04-28T12:22:10.152Z,29.00
2018-04-28T12:27:11.755Z,28.10
2018-04-28T12:32:14.076Z,29.00
2018-04-28T12:37:15.606Z,29.10
2018-04-28T12:42:17.905Z,29.00
2018-04-28T12:47:20.419Z,29.10
2018-04-28T12:52:21.986Z,29.10
2018-04-28T12:57:23.559Z,29.20
2018-04-28T13:02:25.079Z,29.20
2018-04-28T13:07:26.658Z,27.80
2018-04-28T13:12:28.988Z,29.90
2018-04-28T13:17:30.546Z,29.80
2018-04-28T13:22:32.750Z,29.70
2018-04-28T13:27:34.387Z,29.60
2018-04-28T13:32:35.930Z,29.80
2018-04-28T13:37:38.348Z,31.10
2018-04-28T13:42:39.911Z,31.00
2018-04-28T13:47:41.498Z,29.40
2018-04-28T13:52:43.022Z,29.50
2018-04-28T13:57:44.488Z,28.10
2018-04-28T14:02:46.853Z,27.80
2018-04-28T14:07:48.403Z,27.80
2018-04-28T14:12:50.019Z,29.20
2018-04-28T14:17:52.313Z,28.70
2018-04-28T14:22:54.656Z,25.50
2018-04-28T14:27:56.260Z,25.40
2018-04-28T14:32:58.518Z,27.10
2018-04-28T14:38:00.059Z,27.00
2018-04-28T14:43:02.256Z,28.10
2018-04-28T14:48:03.828Z,26.70
2018-04-28T14:53:05.353Z,28.00
2018-04-28T14:58:06.991Z,26.60
2018-04-28T15:03:08.630Z,26.80
2018-04-28T15:08:10.366Z,29.20
2018-04-28T15:13:11.978Z,30.10
2018-04-28T15:18:13.531Z,30.80
2018-04-28T15:23:15.247Z,32.80
2018-04-28T15:28:16.839Z,33.50
2018-04-28T15:33:18.480Z,33.90
2018-04-28T15:38:20.044Z,34.80
2018-04-28T15:43:21.611Z,35.40
2018-04-28T15:48:23.219Z,35.30
2018-04-28T15:53:24.840Z,34.50
2018-04-28T15:58:26.425Z,34.70
2018-04-28T16:03:27.996Z,35.70
2018-04-28T16:08:29.593Z,36.10
2018-04-28T16:13:31.142Z,37.20
2018-04-28T16:18:34.039Z,36.30
2018-04-28T16:23:36.310Z,37.30
2018-04-28T16:28:37.924Z,36.80
2018-04-28T16:33:40.450Z,36.70
2018-04-28T16:38:42.009Z,36.60
2018-04-28T16:43:43.564Z,36.60
2018-04-28T16:48:45.410Z,37.20
2018-04-28T16:53:47.726Z,38.30
2018-04-28T16:58:49.334Z,38.20
2018-04-28T17:03:50.887Z,38.60
2018-04-28T17:08:52.427Z,39.30
2018-04-28T17:13:54.185Z,39.00
2018-04-28T17:18:56.493Z,39.60
2018-04-28T17:23:58.243Z,39.60
2018-04-28T17:28:59.833Z,40.10
2018-04-28T17:34:01.599Z,39.90
2018-04-28T17:39:03.202Z,39.30
2018-04-28T17:44:04.826Z,39.60
2018-04-28T17:49:06.485Z,39.60
2018-04-28T17:54:08.051Z,40.60
2018-04-28T17:59:09.629Z,40.30
2018-04-28T18:04:12.157Z,44.20
2018-04-28T18:09:13.673Z,44.20
2018-04-28T18:14:15.985Z,51.20
2018-04-28T18:19:17.622Z,51.10
2018-04-28T18:24:19.207Z,54.90
2018-04-28T18:29:20.927Z,57.20
2018-04-28T18:34:22.505Z,57.80
2018-04-28T18:39:24.080Z,59.00
2018-04-28T18:44:25.710Z,64.50
2018-04-28T18:49:27.383Z,61.60
2018-04-28T18:54:28.961Z,59.20
2018-04-28T18:59:30.541Z,60.30
2018-04-28T19:04:32.282Z,59.50
2018-04-28T19:09:33.841Z,59.30
2018-04-28T19:14:35.462Z,59.70
2018-04-28T19:19:37.244Z,59.60
2018-04-28T19:24:39.041Z,60.00
2018-04-28T19:29:41.514Z,61.00
2018-04-28T19:34:43.080Z,60.80
2018-04-28T19:39:44.611Z,60.90
2018-04-28T19:44:46.385Z,61.20
2018-04-28T19:49:47.969Z,61.60
2018-04-28T19:54:49.623Z,61.60
2018-04-28T19:59:51.238Z,62.20
2018-04-28T20:04:52.729Z,62.40
2018-04-28T20:09:55.183Z,63.60
2018-04-28T20:14:56.749Z,63.50
2018-04-28T20:19:58.234Z,63.90
2018-04-28T20:25:19.054Z,63.90
2018-04-28T20:30:20.635Z,61.80
2018-04-28T20:35:23.011Z,63.50
2018-04-28T20:40:24.642Z,63.50
2018-04-28T20:45:26.221Z,63.50
2018-04-28T20:50:27.935Z,64.50
2018-04-28T20:55:30.256Z,65.80
2018-04-28T21:00:32.042Z,65.80
2018-04-28T21:05:33.616Z,66.60
2018-04-28T21:10:35.237Z,67.00
2018-04-28T21:15:37.528Z,67.60
2018-04-28T21:20:39.831Z,67.70
2018-04-28T21:25:41.467Z,67.70
2018-04-28T21:30:43.677Z,67.80
2018-04-28T21:35:45.300Z,67.80
2018-04-28T21:40:46.925Z,67.80
2018-04-28T21:45:48.444Z,67.40
2018-04-28T21:50:50.055Z,67.40
2018-04-28T21:55:51.653Z,67.80
2018-04-28T22:00:53.259Z,69.00
2018-04-28T22:05:54.858Z,70.60
2018-04-28T22:10:56.407Z,71.50
2018-04-28T22:15:58.649Z,74.20
2018-04-28T22:21:00.224Z,74.00
2018-04-28T22:26:01.875Z,73.60
2018-04-28T22:31:03.587Z,73.00
2018-04-28T22:36:05.089Z,73.60
2018-04-28T22:41:06.610Z,73.90
2018-04-28T22:46:08.153Z,73.90
2018-04-28T22:51:11.310Z,73.50
2018-04-28T22:56:12.871Z,73.40
2018-04-28T23:01:14.415Z,73.40
2018-04-28T23:06:15.959Z,75.90
2018-04-28T23:11:17.519Z,76.40
2018-04-28T23:16:19.098Z,76.30
2018-04-28T23:21:20.718Z,75.70
2018-04-28T23:26:22.245Z,75.40
2018-04-28T23:31:23.755Z,74.90
2018-04-28T23:36:25.295Z,75.70
2018-04-28T23:41:26.862Z,75.40
2018-04-28T23:46:28.424Z,77.80
2018-04-28T23:51:29.996Z,78.80
2018-04-28T23:56:31.605Z,78.70
